Terminal Aerodrome Forecast
Issued by NWS

Home | Current Version | Previous Version | Text Only | Print | Product List | Glossary On
Versions: 1 2 3 4 5 6 7 8 9 10 11 12 13 14 15 16 17 18 19 20
000
FTUS44 KCRP 012335
TAFALI
TAF
KALI 012335Z 0200/0224 21012KT P6SM SCT040 BKN250
     FM020200 14008KT P6SM SCT250
     FM021000 10004KT 5SM BR SCT020 BKN150
      TEMPO 0210/0213 BKN020
     FM021400 14014KT P6SM SCT025 BKN200
     FM022000 15015G20KT P6SM SCT035 BKN250=

USA.gov is the U.S. government's official web portal to all federal, state and local government web resources and services.